createdAt,value
2022-12-28T00:01:19.772Z,101138.03
2022-12-28T00:03:49.226Z,101136.25
2022-12-28T00:06:17.046Z,101131.06
2022-12-28T00:08:44.026Z,101118.97
2022-12-28T00:11:26.713Z,101112.06
2022-12-28T00:13:59.779Z,101127.69
2022-12-28T00:16:33.171Z,101098.97
2022-12-28T00:19:01.604Z,101116.28
2022-12-28T00:21:29.063Z,101098.00
2022-12-28T00:23:58.270Z,101105.88
2022-12-28T00:26:26.287Z,101106.69
2022-12-28T00:28:56.936Z,101098.81
2022-12-28T00:31:28.661Z,101088.31
2022-12-28T00:33:55.200Z,101080.41
2022-12-28T00:36:21.695Z,101076.06
2022-12-28T00:38:48.211Z,101069.00
2022-12-28T00:41:14.683Z,101059.38
2022-12-28T00:43:41.237Z,101053.16
2022-12-28T00:46:10.101Z,101046.16
2022-12-28T00:48:36.708Z,101049.72
2022-12-28T00:51:09.013Z,101042.78
2022-12-28T00:53:35.494Z,101016.00
2022-12-28T00:56:10.020Z,101037.72
2022-12-28T00:58:36.815Z,101032.47
2022-12-28T01:01:05.112Z,101029.06
2022-12-28T01:03:33.715Z,101019.50
2022-12-28T01:06:04.473Z,101008.88
2022-12-28T01:08:30.958Z,101014.06
2022-12-28T01:10:59.625Z,101004.59
2022-12-28T01:13:26.106Z,101007.97
2022-12-28T01:15:52.650Z,100998.31
2022-12-28T01:18:19.667Z,101002.66
2022-12-28T01:20:46.173Z,101006.94
2022-12-28T01:23:12.739Z,101001.66
2022-12-28T01:25:39.714Z,100989.47
2022-12-28T01:28:06.229Z,100982.59
2022-12-28T01:30:32.752Z,100982.59
2022-12-28T01:32:59.953Z,100952.94
2022-12-28T01:35:26.835Z,100965.84
2022-12-28T01:37:53.348Z,100968.38
2022-12-28T01:40:19.914Z,100970.03
2022-12-28T01:42:46.374Z,100947.44
2022-12-28T01:45:19.051Z,100956.09
2022-12-28T01:47:47.567Z,100963.88
2022-12-28T01:50:20.031Z,100975.13
2022-12-28T01:52:55.798Z,100970.81
2022-12-28T01:55:28.818Z,100942.16
2022-12-28T01:58:19.247Z,100958.59
2022-12-28T02:00:46.077Z,100959.44
2022-12-28T02:03:21.689Z,100932.53
2022-12-28T02:05:52.146Z,100949.84
2022-12-28T02:08:26.450Z,100947.19
2022-12-28T02:10:53.627Z,100922.09
2022-12-28T02:13:22.788Z,100943.00
2022-12-28T02:15:51.756Z,100951.78
2022-12-28T02:18:21.005Z,100923.22
2022-12-28T02:21:09.587Z,100953.69
2022-12-28T02:23:54.907Z,100963.34
2022-12-28T02:26:36.463Z,100946.75
2022-12-28T02:29:14.191Z,100916.19
2022-12-28T02:32:00.540Z,100922.13
2022-12-28T02:34:43.143Z,100924.72
2022-12-28T02:37:22.858Z,100922.91
2022-12-28T02:39:55.140Z,100915.91
2022-12-28T02:42:24.433Z,100916.69
2022-12-28T02:45:09.613Z,100908.91
2022-12-28T02:47:54.967Z,100902.81
2022-12-28T02:50:23.011Z,100884.50
2022-12-28T02:53:07.774Z,100885.31
2022-12-28T02:56:08.079Z,100882.59
2022-12-28T02:58:56.551Z,100855.63
2022-12-28T03:01:38.226Z,100876.47
2022-12-28T03:04:10.616Z,100881.78
2022-12-28T03:07:24.707Z,100869.44
2022-12-28T03:10:11.834Z,100871.09
2022-12-28T03:12:56.781Z,100861.72
2022-12-28T03:15:30.688Z,100843.69
2022-12-28T03:18:32.343Z,100881.06
2022-12-28T03:21:22.169Z,100862.72
2022-12-28T03:24:10.790Z,100874.00
2022-12-28T03:27:00.457Z,100868.81
2022-12-28T03:29:47.338Z,100858.47
2022-12-28T03:32:14.456Z,100825.44
2022-12-28T03:34:43.301Z,100843.56
2022-12-28T03:37:18.624Z,100830.41
2022-12-28T03:39:52.812Z,100831.19
2022-12-28T03:42:45.934Z,100833.78
2022-12-28T03:45:45.972Z,100803.38
2022-12-28T03:48:09.440Z,100817.19
2022-12-28T03:50:39.260Z,100797.94
2022-12-28T03:53:06.672Z,100813.41
2022-12-28T03:55:33.234Z,100801.03
2022-12-28T03:57:59.912Z,100798.34
2022-12-28T04:00:26.459Z,100786.97
2022-12-28T04:02:53.092Z,100780.75
2022-12-28T04:05:21.400Z,100777.16
2022-12-28T04:07:47.990Z,100772.75
2022-12-28T04:10:14.749Z,100748.47
2022-12-28T04:12:41.329Z,100774.41
2022-12-28T04:15:08.298Z,100778.63
2022-12-28T04:17:34.837Z,100775.97
2022-12-28T04:20:01.341Z,100776.84
2022-12-28T04:22:27.889Z,100770.88
2022-12-28T04:24:54.508Z,100773.50
2022-12-28T04:27:24.135Z,100764.88
2022-12-28T04:29:50.876Z,100771.03
2022-12-28T04:32:17.468Z,100768.47
2022-12-28T04:34:48.446Z,100761.41
2022-12-28T04:37:15.737Z,100761.31
2022-12-28T04:39:55.691Z,100763.88
2022-12-28T04:42:24.937Z,100753.50
2022-12-28T04:44:51.505Z,100729.34
2022-12-28T04:47:18.066Z,100755.38
2022-12-28T04:49:44.667Z,100744.88
2022-12-28T04:52:11.179Z,100744.75
2022-12-28T04:54:37.702Z,100742.00
2022-12-28T04:57:04.278Z,100742.84
2022-12-28T04:59:30.804Z,100738.50
2022-12-28T05:01:57.499Z,100727.09
2022-12-28T05:04:24.198Z,100734.78
2022-12-28T05:06:50.811Z,100728.56
2022-12-28T05:09:19.371Z,100726.88
2022-12-28T05:11:46.097Z,100725.16
2022-12-28T05:14:12.655Z,100723.50
2022-12-28T05:16:39.350Z,100719.19
2022-12-28T05:19:05.947Z,100709.56
2022-12-28T05:21:32.462Z,100706.94
2022-12-28T05:23:59.046Z,100709.59
2022-12-28T05:26:28.690Z,100713.06
2022-12-28T05:28:56.199Z,100700.00
2022-12-28T05:31:23.442Z,100673.00
2022-12-28T05:33:50.238Z,100694.56
2022-12-28T05:36:19.304Z,100692.00
2022-12-28T05:38:46.938Z,100691.09
2022-12-28T05:41:15.144Z,100682.25
2022-12-28T05:43:43.734Z,100683.06
2022-12-28T05:46:13.429Z,100673.38
2022-12-28T05:48:41.691Z,100660.28
2022-12-28T05:51:11.559Z,100665.47
2022-12-28T05:53:38.476Z,100668.03
2022-12-28T05:56:10.761Z,100649.59
2022-12-28T05:58:41.442Z,100652.13
2022-12-28T06:01:16.957Z,100652.03
2022-12-28T06:03:44.352Z,100636.91
2022-12-28T06:06:14.010Z,100638.63
2022-12-28T06:08:41.416Z,100584.91
2022-12-28T06:11:10.790Z,100627.16
2022-12-28T06:13:38.194Z,100628.84
2022-12-28T06:16:09.519Z,100607.25
2022-12-28T06:18:36.545Z,100619.19
2022-12-28T06:21:08.201Z,100625.19
2022-12-28T06:23:34.779Z,100626.00
2022-12-28T06:26:02.775Z,100620.75
2022-12-28T06:28:29.791Z,100620.63
2022-12-28T06:31:29.765Z,100627.53
2022-12-28T06:33:58.202Z,100619.66
2022-12-28T06:36:26.571Z,100615.19
2022-12-28T06:38:55.561Z,100619.53
2022-12-28T06:41:22.967Z,100612.50
2022-12-28T06:43:50.214Z,100586.41
2022-12-28T06:46:18.859Z,100607.75
2022-12-28T06:48:45.425Z,100604.97
2022-12-28T06:51:22.846Z,100602.34
2022-12-28T06:53:50.785Z,100597.97
2022-12-28T06:56:37.992Z,100591.72
2022-12-28T06:59:05.267Z,100572.78
2022-12-28T07:01:37.819Z,100589.03
2022-12-28T07:04:06.194Z,100580.28
2022-12-28T07:06:40.120Z,100589.06
2022-12-28T07:09:10.000Z,100589.09
2022-12-28T07:11:37.237Z,100593.56
2022-12-28T07:14:04.186Z,100578.88
2022-12-28T07:18:58.539Z,100577.94
2022-12-28T07:21:27.921Z,100560.75
2022-12-28T07:23:55.608Z,100549.47
2022-12-28T07:26:24.803Z,100546.78
2022-12-28T07:28:54.263Z,100574.47
2022-12-28T07:31:23.453Z,100578.88
2022-12-28T07:33:51.503Z,100584.00
2022-12-28T07:36:19.818Z,100575.19
2022-12-28T07:38:46.834Z,100556.94
2022-12-28T07:41:18.966Z,100575.19
2022-12-28T07:43:45.668Z,100583.84
2022-12-28T07:46:17.468Z,100569.72
2022-12-28T07:48:44.790Z,100566.22
2022-12-28T07:51:27.769Z,100566.28
2022-12-28T07:53:55.650Z,100569.66
2022-12-28T07:56:23.779Z,100566.16
2022-12-28T07:58:52.448Z,100563.38
2022-12-28T08:01:21.322Z,100554.72
2022-12-28T08:03:48.324Z,100539.97
2022-12-28T08:06:23.362Z,100553.72
2022-12-28T08:08:52.274Z,100546.84
2022-12-28T08:11:21.919Z,100538.13
2022-12-28T08:13:51.369Z,100541.50
2022-12-28T08:16:20.180Z,100528.53
2022-12-28T08:18:47.404Z,100540.50
2022-12-28T08:21:16.779Z,100534.38
2022-12-28T08:23:43.633Z,100539.66
2022-12-28T08:26:18.457Z,100529.13
2022-12-28T08:28:46.813Z,100528.28
2022-12-28T08:31:19.325Z,100524.66
2022-12-28T08:33:46.911Z,100526.03
2022-12-28T08:36:13.667Z,100530.00
2022-12-28T08:38:41.861Z,100522.63
2022-12-28T08:41:12.923Z,100533.97
2022-12-28T08:43:39.592Z,100527.22
2022-12-28T08:46:09.229Z,100527.97
2022-12-28T08:48:35.968Z,100524.41
2022-12-28T08:51:06.189Z,100525.13
2022-12-28T08:53:33.271Z,100506.06
2022-12-28T08:56:30.182Z,100510.22
2022-12-28T08:58:57.706Z,100535.19
2022-12-28T09:01:28.121Z,100522.06
2022-12-28T09:03:57.021Z,100541.97
2022-12-28T09:06:31.078Z,100522.47
2022-12-28T09:09:06.470Z,100538.94
2022-12-28T09:11:35.188Z,100551.22
2022-12-28T09:14:04.878Z,100521.88
2022-12-28T09:16:31.410Z,100549.28
2022-12-28T09:19:00.328Z,100551.75
2022-12-28T09:21:29.716Z,100556.63
2022-12-28T09:23:56.439Z,100546.69
2022-12-28T09:26:28.685Z,100551.66
2022-12-28T09:28:57.358Z,100545.38
2022-12-28T09:31:26.972Z,100545.31
2022-12-28T09:36:49.844Z,100540.75
2022-12-28T09:39:19.366Z,100558.00
2022-12-28T09:41:51.337Z,100548.97
2022-12-28T09:44:32.675Z,100539.72
2022-12-28T09:47:08.340Z,100546.59
2022-12-28T09:49:46.416Z,100540.31
2022-12-28T09:52:21.763Z,100547.31
2022-12-28T09:54:48.333Z,100520.28
2022-12-28T09:57:16.555Z,100549.41
2022-12-28T09:59:44.210Z,100548.22
2022-12-28T10:02:29.449Z,100542.50
2022-12-28T10:04:56.110Z,100539.03
2022-12-28T10:07:23.205Z,100527.97
2022-12-28T10:09:50.140Z,100533.69
2022-12-28T10:12:20.985Z,100505.13
2022-12-28T10:14:49.177Z,100536.94
2022-12-28T10:17:20.724Z,100533.25
2022-12-28T10:19:48.326Z,100534.03
2022-12-28T10:22:18.926Z,100522.53
2022-12-28T10:24:46.517Z,100516.41
2022-12-28T10:27:25.047Z,100497.47
2022-12-28T10:29:53.540Z,100517.03
2022-12-28T10:32:21.010Z,100519.00
2022-12-28T10:34:55.106Z,100511.44
2022-12-28T10:37:21.943Z,100519.28
2022-12-28T10:40:21.652Z,100505.91
2022-12-28T10:42:52.078Z,100506.84
2022-12-28T10:45:22.451Z,100503.41
2022-12-28T10:47:52.211Z,100478.59
2022-12-28T10:50:38.066Z,100498.34
2022-12-28T10:53:15.536Z,100500.81
2022-12-28T10:55:44.253Z,100491.00
2022-12-28T10:58:30.654Z,100497.09
2022-12-28T11:01:08.115Z,100490.00
2022-12-28T11:03:37.996Z,100495.22
2022-12-28T11:06:26.286Z,100488.72
2022-12-28T11:09:16.060Z,100486.09
2022-12-28T11:11:45.098Z,100478.28
2022-12-28T11:14:34.406Z,100470.47
2022-12-28T11:17:23.255Z,100468.50
2022-12-28T11:19:53.602Z,100444.38
2022-12-28T11:22:25.854Z,100469.13
2022-12-28T11:24:52.917Z,100430.03
2022-12-28T11:27:22.817Z,100450.09
2022-12-28T11:29:52.219Z,100453.63
2022-12-28T11:32:25.378Z,100438.63
2022-12-28T11:34:54.433Z,100450.09
2022-12-28T11:37:20.906Z,100436.31
2022-12-28T11:39:52.225Z,100428.31
2022-12-28T11:42:39.966Z,100424.81
2022-12-28T11:45:15.977Z,100416.66
2022-12-28T11:47:45.393Z,100394.97
2022-12-28T11:50:36.710Z,100402.66
2022-12-28T11:53:09.116Z,100397.59
2022-12-28T11:55:47.894Z,100396.22
2022-12-28T11:58:42.868Z,100389.84
2022-12-28T12:01:27.667Z,100390.44
2022-12-28T12:03:59.895Z,100390.03
2022-12-28T12:06:41.685Z,100388.53
2022-12-28T12:09:28.355Z,100382.50
2022-12-28T12:12:06.211Z,100378.13
2022-12-28T12:14:39.525Z,100366.69
2022-12-28T12:17:33.933Z,100373.66
2022-12-28T12:20:15.096Z,100363.81
2022-12-28T12:22:48.193Z,100361.22
2022-12-28T12:25:36.986Z,100347.63
2022-12-28T12:28:11.169Z,100355.75
2022-12-28T12:30:38.228Z,100358.38
2022-12-28T12:33:13.373Z,100360.03
2022-12-28T12:36:09.252Z,100357.41
2022-12-28T12:39:04.308Z,100349.34
2022-12-28T12:41:52.219Z,100343.25
2022-12-28T12:44:44.472Z,100343.63
2022-12-28T12:47:42.052Z,100347.88
2022-12-28T12:50:32.809Z,100346.13
2022-12-28T12:53:11.428Z,100348.38
2022-12-28T12:55:46.483Z,100350.22
2022-12-28T12:58:33.591Z,100355.34
2022-12-28T13:01:28.111Z,100336.09
2022-12-28T13:03:58.029Z,100335.34
2022-12-28T13:06:28.589Z,100322.31
2022-12-28T13:09:05.003Z,100328.59
2022-12-28T13:11:37.422Z,100313.81
2022-12-28T13:14:05.058Z,100316.25
2022-12-28T13:16:32.664Z,100328.53
2022-12-28T13:19:02.230Z,100320.59
2022-12-28T13:21:39.714Z,100302.41
2022-12-28T13:24:23.039Z,100305.56
2022-12-28T13:26:50.459Z,100314.34
2022-12-28T13:29:22.931Z,100305.69
2022-12-28T13:31:50.557Z,100288.69
2022-12-28T13:34:33.598Z,100297.16
2022-12-28T13:37:03.003Z,100308.19
2022-12-28T13:39:40.003Z,100293.28
2022-12-28T13:42:15.957Z,100284.50
2022-12-28T13:44:51.810Z,100284.31
2022-12-28T13:47:29.841Z,100293.84
2022-12-28T13:50:05.160Z,100287.69
2022-12-28T13:52:50.356Z,100284.03
2022-12-28T13:55:22.538Z,100264.22
2022-12-28T13:57:59.078Z,100279.31
2022-12-28T14:00:27.728Z,100280.75
2022-12-28T14:02:55.550Z,100276.47
2022-12-28T14:05:25.905Z,100273.84
2022-12-28T14:07:54.277Z,100268.56
2022-12-28T14:10:22.056Z,100258.97
2022-12-28T14:12:49.552Z,100258.06
2022-12-28T14:15:17.872Z,100254.75
2022-12-28T14:17:47.200Z,100229.66
2022-12-28T14:20:14.012Z,100248.00
2022-12-28T14:22:41.366Z,100247.00
2022-12-28T14:25:14.314Z,100232.06
2022-12-28T14:27:57.724Z,100245.75
2022-12-28T14:30:28.755Z,100235.06
2022-12-28T14:32:56.511Z,100238.41
2022-12-28T14:35:26.880Z,100236.63
2022-12-28T14:37:57.063Z,100234.28
2022-12-28T14:40:34.809Z,100225.75
2022-12-28T14:43:17.887Z,100228.13
2022-12-28T14:46:05.124Z,100239.28
2022-12-28T14:48:40.341Z,100203.88
2022-12-28T14:51:17.537Z,100223.59
2022-12-28T14:53:45.279Z,100205.47
2022-12-28T14:56:17.748Z,100219.91
2022-12-28T15:00:26.537Z,100199.06
2022-12-28T15:01:45.736Z,100226.13
2022-12-28T15:04:34.796Z,100217.22
2022-12-28T15:07:01.472Z,100207.78
2022-12-28T15:09:28.048Z,100220.94
2022-12-28T15:12:11.807Z,100189.56
2022-12-28T15:14:38.629Z,100206.53
2022-12-28T15:17:05.537Z,100206.53
2022-12-28T15:19:33.542Z,100184.81
2022-12-28T15:22:00.091Z,100204.53
2022-12-28T15:24:33.624Z,100194.22
2022-12-28T15:27:00.947Z,100187.91
2022-12-28T15:29:47.927Z,100181.75
2022-12-28T15:32:13.898Z,100180.34
2022-12-28T15:34:40.999Z,100148.16
2022-12-28T15:37:07.916Z,100160.56
2022-12-28T15:39:34.448Z,100176.97
2022-12-28T15:42:00.975Z,100175.00
2022-12-28T15:44:27.494Z,100130.22
2022-12-28T15:46:54.102Z,100135.44
2022-12-28T15:49:23.095Z,100161.09
2022-12-28T15:51:49.988Z,100154.44
2022-12-28T15:54:16.790Z,100148.34
2022-12-28T15:56:43.400Z,100149.16
2022-12-28T15:59:14.463Z,100141.69
2022-12-28T16:01:43.271Z,100142.56
2022-12-28T16:04:12.501Z,100129.47
2022-12-28T16:06:44.232Z,100116.28
2022-12-28T16:09:13.080Z,100120.88
2022-12-28T16:11:40.888Z,100139.13
2022-12-28T16:14:11.393Z,100116.38
2022-12-28T16:16:40.115Z,100145.59
2022-12-28T16:19:07.766Z,100133.38
2022-12-28T16:21:36.058Z,100114.50
2022-12-28T16:24:02.811Z,100128.94
2022-12-28T16:26:29.360Z,100124.53
2022-12-28T16:28:55.964Z,100099.72
2022-12-28T16:31:29.375Z,100117.38
2022-12-28T16:34:03.879Z,100121.94
2022-12-28T16:36:31.848Z,100131.03
2022-12-28T16:38:58.650Z,100108.63
2022-12-28T16:41:29.967Z,100127.53
2022-12-28T16:44:04.075Z,100126.91
2022-12-28T16:46:30.717Z,100124.41
2022-12-28T16:49:00.811Z,100120.06
2022-12-28T16:51:27.674Z,100119.13
2022-12-28T16:53:54.194Z,100086.22
2022-12-28T16:56:20.731Z,100119.78
2022-12-28T16:58:49.319Z,100123.97
2022-12-28T17:01:16.381Z,100111.69
2022-12-28T17:03:43.103Z,100120.53
2022-12-28T17:06:09.697Z,100118.69
2022-12-28T17:08:36.404Z,100105.59
2022-12-28T17:11:08.866Z,100106.41
2022-12-28T17:13:36.642Z,100097.88
2022-12-28T17:16:04.090Z,100098.81
2022-12-28T17:18:30.783Z,100106.66
2022-12-28T17:21:01.842Z,100111.09
2022-12-28T17:23:33.113Z,100116.22
2022-12-28T17:25:59.755Z,100104.00
2022-12-28T17:28:26.804Z,100100.38
2022-12-28T17:31:07.574Z,100098.72
2022-12-28T17:33:39.282Z,100100.66
2022-12-28T17:36:07.803Z,100101.38
2022-12-28T17:38:34.448Z,100065.28
2022-12-28T17:41:07.241Z,100097.03
2022-12-28T17:43:33.790Z,100092.78
2022-12-28T17:46:03.315Z,100068.59
2022-12-28T17:48:30.417Z,100064.66
2022-12-28T17:50:59.185Z,100067.41
2022-12-28T17:53:26.068Z,100065.69
2022-12-28T17:55:53.468Z,100058.47
2022-12-28T17:58:20.077Z,100059.19
2022-12-28T18:00:47.591Z,100051.94
2022-12-28T18:03:14.262Z,100034.50
2022-12-28T18:05:41.106Z,100029.75
2022-12-28T18:08:07.613Z,100001.75
2022-12-28T18:10:34.273Z,100030.22
2022-12-28T18:13:00.814Z,100016.47
2022-12-28T18:15:33.296Z,100008.66
2022-12-28T18:18:00.716Z,100014.44
2022-12-28T18:20:27.654Z,100008.63
2022-12-28T18:22:54.548Z,100010.38
2022-12-28T18:25:21.212Z,100001.81
2022-12-28T18:27:47.855Z,99986.63
2022-12-28T18:30:14.782Z,99994.31
2022-12-28T18:32:41.836Z,99991.69
2022-12-28T18:35:09.457Z,99997.13
2022-12-28T18:37:36.088Z,99980.78
2022-12-28T18:40:02.688Z,99974.69
2022-12-28T18:42:29.216Z,99971.50
2022-12-28T18:44:58.169Z,99961.28
2022-12-28T18:47:24.923Z,99969.00
2022-12-28T18:49:51.468Z,99962.81
2022-12-28T18:52:18.502Z,99961.88
2022-12-28T18:54:45.068Z,99958.44
2022-12-28T18:57:11.661Z,99923.84
2022-12-28T18:59:38.352Z,99929.59
2022-12-28T19:02:07.620Z,99948.44
2022-12-28T19:04:36.640Z,99943.88
2022-12-28T19:07:03.572Z,99941.16
2022-12-28T19:09:30.178Z,99930.59
2022-12-28T19:11:56.812Z,99927.88
2022-12-28T19:14:25.047Z,99930.53
2022-12-28T19:16:51.589Z,99929.81
2022-12-28T19:19:18.961Z,99904.84
2022-12-28T19:21:45.744Z,99921.47
2022-12-28T19:24:17.541Z,99919.69
2022-12-28T19:26:45.289Z,99902.63
2022-12-28T19:29:12.942Z,99918.00
2022-12-28T19:31:39.659Z,99905.72
2022-12-28T19:34:06.515Z,99909.28
2022-12-28T19:36:33.205Z,99905.78
2022-12-28T19:39:00.038Z,99899.00
2022-12-28T19:41:26.913Z,99908.41
2022-12-28T19:43:53.856Z,99900.50
2022-12-28T19:46:23.892Z,99895.44
2022-12-28T19:48:53.652Z,99890.28
2022-12-28T19:51:24.547Z,99872.91
2022-12-28T19:53:55.391Z,99878.88
2022-12-28T19:56:22.696Z,99875.47
2022-12-28T19:58:50.214Z,99875.97
2022-12-28T20:01:22.388Z,99874.19
2022-12-28T20:03:49.135Z,99869.91
2022-12-28T20:06:18.748Z,99868.09
2022-12-28T20:08:47.056Z,99860.41
2022-12-28T20:11:13.621Z,99862.28
2022-12-28T20:13:41.974Z,99838.88
2022-12-28T20:16:09.303Z,99857.56
2022-12-28T20:18:36.338Z,99847.31
2022-12-28T20:21:22.001Z,99841.09
2022-12-28T20:23:52.820Z,99853.50
2022-12-28T20:26:19.966Z,99848.16
2022-12-28T20:28:49.507Z,99841.16
2022-12-28T20:31:16.424Z,99842.09
2022-12-28T20:33:44.130Z,99810.31
2022-12-28T20:36:15.971Z,99830.69
2022-12-28T20:38:42.683Z,99834.25
2022-12-28T20:41:09.132Z,99814.59
2022-12-28T20:43:36.143Z,99827.25
2022-12-28T20:46:03.135Z,99827.25
2022-12-28T20:48:30.001Z,99826.47
2022-12-28T20:51:01.350Z,99820.41
2022-12-28T20:53:28.294Z,99824.69
2022-12-28T20:56:06.294Z,99820.28
2022-12-28T20:58:33.060Z,99824.56
2022-12-28T21:01:10.611Z,99816.78
2022-12-28T21:03:37.703Z,99823.56
2022-12-28T21:06:04.693Z,99788.19
2022-12-28T21:08:31.988Z,99806.63
2022-12-28T21:10:58.968Z,99809.31
2022-12-28T21:13:25.687Z,99802.34
2022-12-28T21:15:52.686Z,99809.31
2022-12-28T21:18:19.704Z,99807.53
2022-12-28T21:20:51.682Z,99807.25
2022-12-28T21:23:18.343Z,99807.81
2022-12-28T21:25:46.205Z,99797.16
2022-12-28T21:28:12.774Z,99802.00
2022-12-28T21:30:39.328Z,99797.50
2022-12-28T21:33:06.588Z,99796.56
2022-12-28T21:35:34.691Z,99789.50
2022-12-28T21:38:01.937Z,99777.38
2022-12-28T21:40:28.729Z,99755.69
2022-12-28T21:42:55.326Z,99787.41
2022-12-28T21:45:21.908Z,99783.06
2022-12-28T21:47:48.586Z,99781.25
2022-12-28T21:50:15.228Z,99772.34
2022-12-28T21:52:41.937Z,99779.34
2022-12-28T21:55:34.727Z,99781.69
2022-12-28T21:58:01.332Z,99771.72
2022-12-28T22:01:03.361Z,99770.00
2022-12-28T22:03:48.494Z,99750.28
2022-12-28T22:06:15.087Z,99770.69
2022-12-28T22:09:00.144Z,99751.50
2022-12-28T22:11:44.931Z,99748.56
2022-12-28T22:14:11.480Z,99741.56
2022-12-28T22:16:38.181Z,99730.94
2022-12-28T22:19:05.126Z,99711.22
2022-12-28T22:21:31.961Z,99730.78
2022-12-28T22:23:58.701Z,99732.56
2022-12-28T22:26:25.313Z,99725.56
2022-12-28T22:28:51.902Z,99717.63
2022-12-28T22:31:18.473Z,99729.84
2022-12-28T22:33:45.297Z,99727.13
2022-12-28T22:36:15.346Z,99720.97
2022-12-28T22:38:42.549Z,99720.06
2022-12-28T22:41:09.842Z,99707.84
2022-12-28T22:43:36.614Z,99705.81
2022-12-28T22:46:12.170Z,99707.50
2022-12-28T22:48:38.863Z,99702.84
2022-12-28T22:51:07.506Z,99705.09
2022-12-28T22:53:35.373Z,99707.03
2022-12-28T22:56:04.341Z,99708.31
2022-12-28T22:58:31.140Z,99698.03
2022-12-28T23:01:26.935Z,99703.59
2022-12-28T23:03:53.528Z,99709.56
2022-12-28T23:06:20.479Z,99704.88
2022-12-28T23:08:47.428Z,99701.91
2022-12-28T23:11:34.911Z,99675.88
2022-12-28T23:14:43.116Z,99680.44
2022-12-28T23:17:12.602Z,99685.28
2022-12-28T23:19:58.015Z,99685.97
2022-12-28T23:22:47.101Z,99681.19
2022-12-28T23:25:35.015Z,99669.66
2022-12-28T23:28:03.375Z,99667.69
2022-12-28T23:30:30.198Z,99638.53
2022-12-28T23:32:57.082Z,99662.41
2022-12-28T23:35:25.443Z,99650.81
2022-12-28T23:37:52.432Z,99641.94
2022-12-28T23:40:21.381Z,99654.81
2022-12-28T23:42:48.606Z,99624.91
2022-12-28T23:45:17.651Z,99647.63
2022-12-28T23:47:45.000Z,99640.38
2022-12-28T23:50:12.849Z,99634.41
2022-12-28T23:52:39.601Z,99637.47
2022-12-28T23:55:06.631Z,99631.59
2022-12-28T23:57:33.476Z,99641.69
